Messwerte Fairford

Temperatur

Temperatur
°C
1575763200 0.00 0.00 10
1575766800 1.00 1.00
1575770400 2.00 2.00 11
1575774000 3.00 3.00 11
1575777600 4.00 4.00 11
1575781200 5.00 5.00 10
1575784800 6.00 6.00
1575788400 7.00 7.00
1575792000 8.00 8.00
1575795600 9.00 9.00 8
1575799200 10.00 10.00 9
1575802800 11.00 11.00 10
1575806400 12.00 12.00 9
1575810000 13.00 13.00 8
1575813600 14.00 14.00 9
1575817200 15.00 15.00 7
1575820800 16.00 16.00 7
1575824400 17.00 17.00 6
1575828000 18.00 18.00 5
1575831600 19.00 19.00 6
1575835200 20.00 20.00 6
1575838800 21.00 21.00 6
1575842400 22.00 22.00 5
1575846000 23.00 23.00 5

Aktuellste Messwerte

Wettercharakter
Wetter: bedeckt, wenig Regen
Temperatur
6 °C
Feuchtigkeit
95 %
Wind
25 km/hWindrichtung: Südwest
Böen
40 km/h
Luftdruck
990 hPa
Messzeit: 8. Dezember 2019, 23.00Datenquelle: METAR

Weitere Messstationen in der Nähe

Messstation Temperatur Entfernung
Brize Norton 5 °C 16 km
Gloucestershire - 38 km
Benson 6 °C 49 km
Boscombe Down 7 °C 57 km
Middle Wallop 7 °C 61 km
Bristol 7 °C 62 km
Odiham 6 °C 76 km

Wind

Windrichtung Böen Mittelwind
° km/h km/h
1575763200 0.00 23.00 - 0.00 210° 45 35
1575766800 1.00 0.00 - 1.00
1575770400 2.00 1.00 - 2.00 220° 50 35
1575774000 3.00 2.00 - 3.00 220° 55 40
1575777600 4.00 3.00 - 4.00 240° 45 30
1575781200 5.00 4.00 - 5.00 250° 60 45
1575784800 6.00 5.00 - 6.00
1575788400 7.00 6.00 - 7.00
1575792000 8.00 7.00 - 8.00
1575795600 9.00 8.00 - 9.00 250° 30
1575799200 10.00 9.00 - 10.00 250° 50 35
1575802800 11.00 10.00 - 11.00 240° 50 40
1575806400 12.00 11.00 - 12.00 250° 55 40
1575810000 13.00 12.00 - 13.00 240° 60 35
1575813600 14.00 13.00 - 14.00 250° 70 55
1575817200 15.00 14.00 - 15.00 240° 40 30
1575820800 16.00 15.00 - 16.00 250° 45 35
1575824400 17.00 16.00 - 17.00 250° 50 30
1575828000 18.00 17.00 - 18.00 240° 50 25
1575831600 19.00 18.00 - 19.00 230° 25
1575835200 20.00 19.00 - 20.00 220° 25
1575838800 21.00 20.00 - 21.00 230° 50 30
1575842400 22.00 21.00 - 22.00 230° 55 35
1575846000 23.00 22.00 - 23.00 200° 30 20

Ihre Wetterstation

Fehlt Ihre Wetterstation auf unserem Portal?

Schreiben Sie an network@meteonews.ch

Klima

Wann ist es am wärmsten? Wann regnet es am wenigsten? Unsere Klimadaten geben Auskunft.